sensor_id;sensor_type;location;lat;lon;timestamp;temperature;humidity
42683;DHT22;28293;50.930;3.464;2023-05-07T00:00:00;17.60;74.50
42683;DHT22;28293;50.930;3.464;2023-05-07T00:02:26;17.60;74.60
42683;DHT22;28293;50.930;3.464;2023-05-07T00:04:52;17.60;74.70
42683;DHT22;28293;50.930;3.464;2023-05-07T00:07:18;17.60;74.90
42683;DHT22;28293;50.930;3.464;2023-05-07T00:09:43;17.60;75.00
42683;DHT22;28293;50.930;3.464;2023-05-07T00:12:09;17.60;74.90
42683;DHT22;28293;50.930;3.464;2023-05-07T00:14:35;17.60;74.90
42683;DHT22;28293;50.930;3.464;2023-05-07T00:17:01;17.50;75.00
42683;DHT22;28293;50.930;3.464;2023-05-07T00:19:27;17.50;75.00
42683;DHT22;28293;50.930;3.464;2023-05-07T00:21:53;17.60;75.10
42683;DHT22;28293;50.930;3.464;2023-05-07T00:24:19;17.50;75.20
42683;DHT22;28293;50.930;3.464;2023-05-07T00:26:45;17.50;75.40
42683;DHT22;28293;50.930;3.464;2023-05-07T00:29:10;17.40;75.50
42683;DHT22;28293;50.930;3.464;2023-05-07T00:31:36;17.40;75.70
42683;DHT22;28293;50.930;3.464;2023-05-07T00:34:02;17.40;75.90
42683;DHT22;28293;50.930;3.464;2023-05-07T00:36:27;17.30;75.70
42683;DHT22;28293;50.930;3.464;2023-05-07T00:38:56;17.30;76.10
42683;DHT22;28293;50.930;3.464;2023-05-07T00:41:22;17.30;76.10
42683;DHT22;28293;50.930;3.464;2023-05-07T00:43:48;17.20;76.20
42683;DHT22;28293;50.930;3.464;2023-05-07T00:46:14;17.20;76.40
42683;DHT22;28293;50.930;3.464;2023-05-07T00:48:41;17.20;76.70
42683;DHT22;28293;50.930;3.464;2023-05-07T00:51:06;17.20;76.80
42683;DHT22;28293;50.930;3.464;2023-05-07T00:53:32;17.20;76.80
42683;DHT22;28293;50.930;3.464;2023-05-07T00:55:58;17.10;76.80
42683;DHT22;28293;50.930;3.464;2023-05-07T00:58:24;17.10;76.70
42683;DHT22;28293;50.930;3.464;2023-05-07T01:00:50;17.10;76.80
42683;DHT22;28293;50.930;3.464;2023-05-07T01:03:16;17.10;76.90
42683;DHT22;28293;50.930;3.464;2023-05-07T01:05:42;17.10;77.00
42683;DHT22;28293;50.930;3.464;2023-05-07T01:08:10;17.00;77.00
42683;DHT22;28293;50.930;3.464;2023-05-07T01:10:36;17.00;76.90
42683;DHT22;28293;50.930;3.464;2023-05-07T01:13:02;17.00;76.90
42683;DHT22;28293;50.930;3.464;2023-05-07T01:15:27;17.00;77.00
42683;DHT22;28293;50.930;3.464;2023-05-07T01:17:53;16.90;77.20
42683;DHT22;28293;50.930;3.464;2023-05-07T01:20:19;16.90;77.30
42683;DHT22;28293;50.930;3.464;2023-05-07T01:22:45;16.90;77.50
42683;DHT22;28293;50.930;3.464;2023-05-07T01:25:11;16.80;77.70
42683;DHT22;28293;50.930;3.464;2023-05-07T01:27:37;16.80;77.90
42683;DHT22;28293;50.930;3.464;2023-05-07T01:30:04;16.80;78.00
42683;DHT22;28293;50.930;3.464;2023-05-07T01:33:00;16.80;78.00
42683;DHT22;28293;50.930;3.464;2023-05-07T01:35:32;16.80;78.10
42683;DHT22;28293;50.930;3.464;2023-05-07T01:37:59;16.80;78.30
42683;DHT22;28293;50.930;3.464;2023-05-07T01:40:26;16.80;78.20
42683;DHT22;28293;50.930;3.464;2023-05-07T01:42:53;16.80;78.30
42683;DHT22;28293;50.930;3.464;2023-05-07T01:45:19;16.80;78.30
42683;DHT22;28293;50.930;3.464;2023-05-07T01:47:46;16.80;78.30
42683;DHT22;28293;50.930;3.464;2023-05-07T01:50:12;16.80;78.30
42683;DHT22;28293;50.930;3.464;2023-05-07T01:52:38;16.80;78.40
42683;DHT22;28293;50.930;3.464;2023-05-07T01:55:05;16.80;78.40
42683;DHT22;28293;50.930;3.464;2023-05-07T01:57:31;16.70;78.60
42683;DHT22;28293;50.930;3.464;2023-05-07T01:59:57;16.70;78.60
42683;DHT22;28293;50.930;3.464;2023-05-07T02:02:22;16.70;78.60
42683;DHT22;28293;50.930;3.464;2023-05-07T02:04:48;16.70;78.60
42683;DHT22;28293;50.930;3.464;2023-05-07T02:07:14;16.70;78.80
42683;DHT22;28293;50.930;3.464;2023-05-07T02:09:39;16.70;78.90
42683;DHT22;28293;50.930;3.464;2023-05-07T02:12:05;16.60;79.00
42683;DHT22;28293;50.930;3.464;2023-05-07T02:14:31;16.60;79.10
42683;DHT22;28293;50.930;3.464;2023-05-07T02:16:57;16.60;79.20
42683;DHT22;28293;50.930;3.464;2023-05-07T02:19:22;16.60;79.30
42683;DHT22;28293;50.930;3.464;2023-05-07T02:21:48;16.60;79.30
42683;DHT22;28293;50.930;3.464;2023-05-07T02:24:14;16.60;79.50
42683;DHT22;28293;50.930;3.464;2023-05-07T02:26:40;16.60;79.50
42683;DHT22;28293;50.930;3.464;2023-05-07T02:29:06;16.60;79.60
42683;DHT22;28293;50.930;3.464;2023-05-07T02:31:32;16.50;79.60
42683;DHT22;28293;50.930;3.464;2023-05-07T02:33:59;16.50;79.60
42683;DHT22;28293;50.930;3.464;2023-05-07T02:36:25;16.40;79.80
42683;DHT22;28293;50.930;3.464;2023-05-07T02:38:52;16.50;79.80
42683;DHT22;28293;50.930;3.464;2023-05-07T02:41:17;16.40;79.80
42683;DHT22;28293;50.930;3.464;2023-05-07T02:43:43;16.50;79.80
42683;DHT22;28293;50.930;3.464;2023-05-07T02:46:09;16.50;79.80
42683;DHT22;28293;50.930;3.464;2023-05-07T02:48:35;16.50;79.80
42683;DHT22;28293;50.930;3.464;2023-05-07T02:51:02;16.50;79.80
42683;DHT22;28293;50.930;3.464;2023-05-07T02:53:28;16.50;79.90
42683;DHT22;28293;50.930;3.464;2023-05-07T02:55:58;16.50;79.90
42683;DHT22;28293;50.930;3.464;2023-05-07T02:58:24;16.50;79.80
42683;DHT22;28293;50.930;3.464;2023-05-07T03:00:49;16.50;79.60
42683;DHT22;28293;50.930;3.464;2023-05-07T03:03:15;16.40;79.70
42683;DHT22;28293;50.930;3.464;2023-05-07T03:05:41;16.40;79.80
42683;DHT22;28293;50.930;3.464;2023-05-07T03:08:07;16.30;79.90
42683;DHT22;28293;50.930;3.464;2023-05-07T03:10:33;16.30;80.20
42683;DHT22;28293;50.930;3.464;2023-05-07T03:12:59;16.40;80.20
42683;DHT22;28293;50.930;3.464;2023-05-07T03:15:25;16.30;80.10
42683;DHT22;28293;50.930;3.464;2023-05-07T03:17:50;16.40;79.90
42683;DHT22;28293;50.930;3.464;2023-05-07T03:20:16;16.40;79.90
42683;DHT22;28293;50.930;3.464;2023-05-07T03:22:42;16.40;79.90
42683;DHT22;28293;50.930;3.464;2023-05-07T03:25:08;16.40;79.90
42683;DHT22;28293;50.930;3.464;2023-05-07T03:27:34;16.30;80.10
42683;DHT22;28293;50.930;3.464;2023-05-07T03:30:00;16.40;80.20
42683;DHT22;28293;50.930;3.464;2023-05-07T03:32:26;16.40;80.30
42683;DHT22;28293;50.930;3.464;2023-05-07T03:34:52;16.30;80.30
42683;DHT22;28293;50.930;3.464;2023-05-07T03:37:18;16.40;80.30
42683;DHT22;28293;50.930;3.464;2023-05-07T03:39:43;16.40;80.30
42683;DHT22;28293;50.930;3.464;2023-05-07T03:42:09;16.40;80.30
42683;DHT22;28293;50.930;3.464;2023-05-07T03:44:35;16.40;80.30
42683;DHT22;28293;50.930;3.464;2023-05-07T03:47:02;16.40;80.30
42683;DHT22;28293;50.930;3.464;2023-05-07T03:49:27;16.50;80.10
42683;DHT22;28293;50.930;3.464;2023-05-07T03:51:53;16.50;80.00
42683;DHT22;28293;50.930;3.464;2023-05-07T03:54:19;16.50;80.00
42683;DHT22;28293;50.930;3.464;2023-05-07T03:56:44;16.50;79.90
42683;DHT22;28293;50.930;3.464;2023-05-07T03:59:10;16.50;80.00
42683;DHT22;28293;50.930;3.464;2023-05-07T04:01:36;16.50;80.20
42683;DHT22;28293;50.930;3.464;2023-05-07T04:04:01;16.50;80.30
42683;DHT22;28293;50.930;3.464;2023-05-07T04:06:28;16.50;80.40
42683;DHT22;28293;50.930;3.464;2023-05-07T04:08:54;16.50;80.50
42683;DHT22;28293;50.930;3.464;2023-05-07T04:11:20;16.40;80.60
42683;DHT22;28293;50.930;3.464;2023-05-07T04:13:45;16.40;80.70
42683;DHT22;28293;50.930;3.464;2023-05-07T04:16:11;16.40;80.80
42683;DHT22;28293;50.930;3.464;2023-05-07T04:18:37;16.40;81.00
42683;DHT22;28293;50.930;3.464;2023-05-07T04:21:03;16.40;81.20
42683;DHT22;28293;50.930;3.464;2023-05-07T04:23:29;16.40;81.30
42683;DHT22;28293;50.930;3.464;2023-05-07T04:25:54;16.40;81.40
42683;DHT22;28293;50.930;3.464;2023-05-07T04:28:20;16.30;81.50
42683;DHT22;28293;50.930;3.464;2023-05-07T04:30:46;16.40;81.60
42683;DHT22;28293;50.930;3.464;2023-05-07T04:33:13;16.30;81.70
42683;DHT22;28293;50.930;3.464;2023-05-07T04:35:40;16.40;81.70
42683;DHT22;28293;50.930;3.464;2023-05-07T04:38:05;16.40;81.80
42683;DHT22;28293;50.930;3.464;2023-05-07T04:40:31;16.50;81.80
42683;DHT22;28293;50.930;3.464;2023-05-07T04:42:57;16.40;81.80
42683;DHT22;28293;50.930;3.464;2023-05-07T04:45:23;16.50;81.70
42683;DHT22;28293;50.930;3.464;2023-05-07T04:47:48;16.50;81.80
42683;DHT22;28293;50.930;3.464;2023-05-07T04:50:14;16.50;81.80
42683;DHT22;28293;50.930;3.464;2023-05-07T04:52:39;16.50;81.80
42683;DHT22;28293;50.930;3.464;2023-05-07T04:55:05;16.50;81.70
42683;DHT22;28293;50.930;3.464;2023-05-07T04:57:31;16.60;81.50
42683;DHT22;28293;50.930;3.464;2023-05-07T04:59:57;16.50;81.50
42683;DHT22;28293;50.930;3.464;2023-05-07T05:02:23;16.50;81.40
42683;DHT22;28293;50.930;3.464;2023-05-07T05:04:48;16.60;81.40
42683;DHT22;28293;50.930;3.464;2023-05-07T05:07:14;16.50;81.20
42683;DHT22;28293;50.930;3.464;2023-05-07T05:09:40;16.50;81.30
42683;DHT22;28293;50.930;3.464;2023-05-07T05:12:05;16.50;81.40
42683;DHT22;28293;50.930;3.464;2023-05-07T05:14:32;16.60;81.30
42683;DHT22;28293;50.930;3.464;2023-05-07T05:16:58;16.50;81.40
42683;DHT22;28293;50.930;3.464;2023-05-07T05:19:24;16.60;81.40
42683;DHT22;28293;50.930;3.464;2023-05-07T05:21:49;16.60;81.40
42683;DHT22;28293;50.930;3.464;2023-05-07T05:24:15;16.60;81.70
42683;DHT22;28293;50.930;3.464;2023-05-07T05:26:41;16.60;81.80
42683;DHT22;28293;50.930;3.464;2023-05-07T05:29:06;16.60;81.90
42683;DHT22;28293;50.930;3.464;2023-05-07T05:31:33;16.60;82.10
42683;DHT22;28293;50.930;3.464;2023-05-07T05:33:59;16.60;82.20
42683;DHT22;28293;50.930;3.464;2023-05-07T05:36:24;16.60;82.40
42683;DHT22;28293;50.930;3.464;2023-05-07T05:38:51;16.60;82.60
42683;DHT22;28293;50.930;3.464;2023-05-07T05:41:16;16.60;82.70
42683;DHT22;28293;50.930;3.464;2023-05-07T05:43:42;16.60;83.10
42683;DHT22;28293;50.930;3.464;2023-05-07T05:46:08;16.60;83.30
42683;DHT22;28293;50.930;3.464;2023-05-07T05:48:36;16.60;83.60
42683;DHT22;28293;50.930;3.464;2023-05-07T05:51:02;16.50;83.80
42683;DHT22;28293;50.930;3.464;2023-05-07T05:53:27;16.60;84.00
42683;DHT22;28293;50.930;3.464;2023-05-07T05:55:53;16.60;84.10
42683;DHT22;28293;50.930;3.464;2023-05-07T05:58:19;16.60;84.20
42683;DHT22;28293;50.930;3.464;2023-05-07T06:00:46;16.50;84.40
42683;DHT22;28293;50.930;3.464;2023-05-07T06:03:12;16.50;84.80
42683;DHT22;28293;50.930;3.464;2023-05-07T06:05:37;16.50;84.80
42683;DHT22;28293;50.930;3.464;2023-05-07T06:08:03;16.50;84.90
42683;DHT22;28293;50.930;3.464;2023-05-07T06:10:29;16.50;85.30
42683;DHT22;28293;50.930;3.464;2023-05-07T06:12:56;16.50;85.50
42683;DHT22;28293;50.930;3.464;2023-05-07T06:15:21;16.50;85.70
42683;DHT22;28293;50.930;3.464;2023-05-07T06:17:47;16.50;85.70
42683;DHT22;28293;50.930;3.464;2023-05-07T06:20:14;16.50;85.80
42683;DHT22;28293;50.930;3.464;2023-05-07T06:22:40;16.60;85.90
42683;DHT22;28293;50.930;3.464;2023-05-07T06:25:06;16.60;85.90
42683;DHT22;28293;50.930;3.464;2023-05-07T06:27:32;16.60;86.20
42683;DHT22;28293;50.930;3.464;2023-05-07T06:29:57;16.60;86.00
42683;DHT22;28293;50.930;3.464;2023-05-07T06:32:23;16.60;86.10
42683;DHT22;28293;50.930;3.464;2023-05-07T06:34:48;16.60;86.60
42683;DHT22;28293;50.930;3.464;2023-05-07T06:37:14;16.70;86.40
42683;DHT22;28293;50.930;3.464;2023-05-07T06:39:40;16.70;86.30
42683;DHT22;28293;50.930;3.464;2023-05-07T06:42:06;16.70;86.20
42683;DHT22;28293;50.930;3.464;2023-05-07T06:44:31;16.70;85.90
42683;DHT22;28293;50.930;3.464;2023-05-07T06:46:57;16.70;86.40
42683;DHT22;28293;50.930;3.464;2023-05-07T06:49:23;16.70;86.30
42683;DHT22;28293;50.930;3.464;2023-05-07T06:51:49;16.70;86.60
42683;DHT22;28293;50.930;3.464;2023-05-07T06:54:14;16.80;86.40
42683;DHT22;28293;50.930;3.464;2023-05-07T06:56:40;16.70;86.40
42683;DHT22;28293;50.930;3.464;2023-05-07T06:59:06;16.80;86.50
42683;DHT22;28293;50.930;3.464;2023-05-07T07:01:32;16.90;86.40
42683;DHT22;28293;50.930;3.464;2023-05-07T07:03:57;16.90;86.30
42683;DHT22;28293;50.930;3.464;2023-05-07T07:06:23;16.90;86.30
42683;DHT22;28293;50.930;3.464;2023-05-07T07:08:49;16.90;86.20
42683;DHT22;28293;50.930;3.464;2023-05-07T07:11:15;16.90;86.10
42683;DHT22;28293;50.930;3.464;2023-05-07T07:13:41;16.90;86.20
42683;DHT22;28293;50.930;3.464;2023-05-07T07:16:08;17.00;86.20
42683;DHT22;28293;50.930;3.464;2023-05-07T07:18:34;16.90;86.30
42683;DHT22;28293;50.930;3.464;2023-05-07T07:20:59;17.00;86.20
42683;DHT22;28293;50.930;3.464;2023-05-07T07:23:25;17.00;86.40
42683;DHT22;28293;50.930;3.464;2023-05-07T07:25:51;17.10;86.30
42683;DHT22;28293;50.930;3.464;2023-05-07T07:28:17;17.10;86.20
42683;DHT22;28293;50.930;3.464;2023-05-07T07:30:42;17.10;86.10
42683;DHT22;28293;50.930;3.464;2023-05-07T07:33:08;17.20;86.10
42683;DHT22;28293;50.930;3.464;2023-05-07T07:35:34;17.20;85.90
42683;DHT22;28293;50.930;3.464;2023-05-07T07:38:00;17.10;86.00
42683;DHT22;28293;50.930;3.464;2023-05-07T07:40:27;17.20;86.40
42683;DHT22;28293;50.930;3.464;2023-05-07T07:42:53;17.30;86.30
42683;DHT22;28293;50.930;3.464;2023-05-07T07:45:19;17.30;86.00
42683;DHT22;28293;50.930;3.464;2023-05-07T07:47:45;17.30;86.10
42683;DHT22;28293;50.930;3.464;2023-05-07T07:50:11;17.40;85.90
42683;DHT22;28293;50.930;3.464;2023-05-07T07:52:37;17.40;85.80
42683;DHT22;28293;50.930;3.464;2023-05-07T07:55:03;17.40;85.70
42683;DHT22;28293;50.930;3.464;2023-05-07T07:57:30;17.40;85.60
42683;DHT22;28293;50.930;3.464;2023-05-07T07:59:55;17.50;85.40
42683;DHT22;28293;50.930;3.464;2023-05-07T08:02:21;17.40;85.50
42683;DHT22;28293;50.930;3.464;2023-05-07T08:04:47;17.50;85.20
42683;DHT22;28293;50.930;3.464;2023-05-07T08:07:13;17.40;85.20
42683;DHT22;28293;50.930;3.464;2023-05-07T08:09:39;17.40;85.40
42683;DHT22;28293;50.930;3.464;2023-05-07T08:12:05;17.50;85.30
42683;DHT22;28293;50.930;3.464;2023-05-07T08:14:32;17.60;85.40
42683;DHT22;28293;50.930;3.464;2023-05-07T08:16:57;17.60;85.50
42683;DHT22;28293;50.930;3.464;2023-05-07T08:19:23;17.60;85.40
42683;DHT22;28293;50.930;3.464;2023-05-07T08:21:49;17.60;84.90
42683;DHT22;28293;50.930;3.464;2023-05-07T08:24:15;17.70;85.50
42683;DHT22;28293;50.930;3.464;2023-05-07T08:26:41;17.80;85.30
42683;DHT22;28293;50.930;3.464;2023-05-07T08:29:07;17.90;85.30
42683;DHT22;28293;50.930;3.464;2023-05-07T08:31:33;18.00;85.00
42683;DHT22;28293;50.930;3.464;2023-05-07T08:33:59;18.00;85.00
42683;DHT22;28293;50.930;3.464;2023-05-07T08:36:25;18.00;85.00
42683;DHT22;28293;50.930;3.464;2023-05-07T08:38:54;18.10;84.60
42683;DHT22;28293;50.930;3.464;2023-05-07T08:41:20;18.10;84.10
42683;DHT22;28293;50.930;3.464;2023-05-07T08:43:48;18.10;84.10
42683;DHT22;28293;50.930;3.464;2023-05-07T08:46:21;18.20;84.40
42683;DHT22;28293;50.930;3.464;2023-05-07T08:48:51;18.30;84.40
42683;DHT22;28293;50.930;3.464;2023-05-07T08:51:19;18.20;83.30
42683;DHT22;28293;50.930;3.464;2023-05-07T08:53:46;18.40;83.40
42683;DHT22;28293;50.930;3.464;2023-05-07T08:56:12;18.50;83.50
42683;DHT22;28293;50.930;3.464;2023-05-07T08:58:38;18.40;82.50
42683;DHT22;28293;50.930;3.464;2023-05-07T09:01:08;18.60;82.40
42683;DHT22;28293;50.930;3.464;2023-05-07T09:03:34;18.70;81.90
42683;DHT22;28293;50.930;3.464;2023-05-07T09:05:59;18.70;81.50
42683;DHT22;28293;50.930;3.464;2023-05-07T09:08:26;18.80;81.50
42683;DHT22;28293;50.930;3.464;2023-05-07T09:10:53;18.90;81.50
42683;DHT22;28293;50.930;3.464;2023-05-07T09:13:19;19.00;81.60
42683;DHT22;28293;50.930;3.464;2023-05-07T09:15:45;19.10;81.10
42683;DHT22;28293;50.930;3.464;2023-05-07T09:18:12;19.20;81.10
42683;DHT22;28293;50.930;3.464;2023-05-07T09:20:39;19.20;80.30
42683;DHT22;28293;50.930;3.464;2023-05-07T09:23:05;19.40;80.00
42683;DHT22;28293;50.930;3.464;2023-05-07T09:25:33;19.50;79.90
42683;DHT22;28293;50.930;3.464;2023-05-07T09:28:00;19.60;79.70
42683;DHT22;28293;50.930;3.464;2023-05-07T09:30:30;19.70;79.50
42683;DHT22;28293;50.930;3.464;2023-05-07T09:33:00;19.70;78.20
42683;DHT22;28293;50.930;3.464;2023-05-07T09:35:26;19.70;78.10
42683;DHT22;28293;50.930;3.464;2023-05-07T09:37:57;19.80;78.10
42683;DHT22;28293;50.930;3.464;2023-05-07T09:40:27;19.80;77.90
42683;DHT22;28293;50.930;3.464;2023-05-07T09:42:54;20.10;78.10
42683;DHT22;28293;50.930;3.464;2023-05-07T09:45:27;20.10;77.80
42683;DHT22;28293;50.930;3.464;2023-05-07T09:47:57;20.10;76.70
42683;DHT22;28293;50.930;3.464;2023-05-07T09:50:28;20.20;76.80
42683;DHT22;28293;50.930;3.464;2023-05-07T09:52:55;20.30;76.30
42683;DHT22;28293;50.930;3.464;2023-05-07T09:55:22;20.20;76.60
42683;DHT22;28293;50.930;3.464;2023-05-07T09:57:50;20.30;77.50
42683;DHT22;28293;50.930;3.464;2023-05-07T10:00:18;20.30;76.30
42683;DHT22;28293;50.930;3.464;2023-05-07T10:02:46;20.00;77.10
42683;DHT22;28293;50.930;3.464;2023-05-07T10:05:16;19.90;77.40
42683;DHT22;28293;50.930;3.464;2023-05-07T10:07:42;19.80;77.50
42683;DHT22;28293;50.930;3.464;2023-05-07T10:10:09;19.80;78.00
42683;DHT22;28293;50.930;3.464;2023-05-07T10:12:35;19.90;76.90
42683;DHT22;28293;50.930;3.464;2023-05-07T10:15:08;19.80;77.00
42683;DHT22;28293;50.930;3.464;2023-05-07T10:17:38;19.80;77.50
42683;DHT22;28293;50.930;3.464;2023-05-07T10:20:05;19.80;77.70
42683;DHT22;28293;50.930;3.464;2023-05-07T10:22:39;19.80;78.20
42683;DHT22;28293;50.930;3.464;2023-05-07T10:25:16;19.90;78.20
42683;DHT22;28293;50.930;3.464;2023-05-07T10:27:43;19.80;77.20
42683;DHT22;28293;50.930;3.464;2023-05-07T10:32:57;19.80;78.20
42683;DHT22;28293;50.930;3.464;2023-05-07T10:35:32;19.80;77.50
42683;DHT22;28293;50.930;3.464;2023-05-07T10:37:58;19.80;77.60
42683;DHT22;28293;50.930;3.464;2023-05-07T10:40:24;19.80;77.50
42683;DHT22;28293;50.930;3.464;2023-05-07T10:43:01;19.90;77.80
42683;DHT22;28293;50.930;3.464;2023-05-07T10:45:27;19.90;77.60
42683;DHT22;28293;50.930;3.464;2023-05-07T10:48:14;20.00;77.20
42683;DHT22;28293;50.930;3.464;2023-05-07T10:50:44;20.10;76.80
42683;DHT22;28293;50.930;3.464;2023-05-07T10:58:37;20.40;74.10
42683;DHT22;28293;50.930;3.464;2023-05-07T11:01:03;20.50;73.60
42683;DHT22;28293;50.930;3.464;2023-05-07T11:03:29;20.60;74.20
42683;DHT22;28293;50.930;3.464;2023-05-07T11:06:14;20.60;74.20
42683;DHT22;28293;50.930;3.464;2023-05-07T11:08:52;20.80;73.40
42683;DHT22;28293;50.930;3.464;2023-05-07T11:11:18;20.80;72.40
42683;DHT22;28293;50.930;3.464;2023-05-07T11:13:46;20.90;72.30
42683;DHT22;28293;50.930;3.464;2023-05-07T11:16:22;21.10;71.90
42683;DHT22;28293;50.930;3.464;2023-05-07T11:18:50;21.30;71.00
42683;DHT22;28293;50.930;3.464;2023-05-07T11:23:59;21.30;70.00
42683;DHT22;28293;50.930;3.464;2023-05-07T11:26:25;21.30;69.80
42683;DHT22;28293;50.930;3.464;2023-05-07T11:28:51;21.30;69.70
42683;DHT22;28293;50.930;3.464;2023-05-07T11:31:21;21.40;69.70
42683;DHT22;28293;50.930;3.464;2023-05-07T11:33:48;21.50;68.20
42683;DHT22;28293;50.930;3.464;2023-05-07T11:36:14;21.60;68.80
42683;DHT22;28293;50.930;3.464;2023-05-07T11:38:40;21.50;68.40
42683;DHT22;28293;50.930;3.464;2023-05-07T11:41:07;21.60;68.50
42683;DHT22;28293;50.930;3.464;2023-05-07T11:43:33;21.60;69.20
42683;DHT22;28293;50.930;3.464;2023-05-07T11:46:09;21.60;68.60
42683;DHT22;28293;50.930;3.464;2023-05-07T11:48:36;21.60;69.70
42683;DHT22;28293;50.930;3.464;2023-05-07T11:51:03;21.60;67.90
42683;DHT22;28293;50.930;3.464;2023-05-07T11:53:37;21.60;67.90
42683;DHT22;28293;50.930;3.464;2023-05-07T11:56:11;21.60;68.20
42683;DHT22;28293;50.930;3.464;2023-05-07T11:58:37;21.60;68.50
42683;DHT22;28293;50.930;3.464;2023-05-07T12:01:03;21.70;68.20
42683;DHT22;28293;50.930;3.464;2023-05-07T12:03:29;21.70;67.50
42683;DHT22;28293;50.930;3.464;2023-05-07T12:05:55;21.70;68.80
42683;DHT22;28293;50.930;3.464;2023-05-07T12:08:21;21.80;68.80
42683;DHT22;28293;50.930;3.464;2023-05-07T12:10:49;21.90;68.20
42683;DHT22;28293;50.930;3.464;2023-05-07T12:13:19;22.00;67.70
42683;DHT22;28293;50.930;3.464;2023-05-07T12:15:44;22.10;67.90
42683;DHT22;28293;50.930;3.464;2023-05-07T12:18:11;22.10;67.30
42683;DHT22;28293;50.930;3.464;2023-05-07T12:20:38;22.20;67.70
42683;DHT22;28293;50.930;3.464;2023-05-07T12:23:04;22.20;67.00
42683;DHT22;28293;50.930;3.464;2023-05-07T12:25:37;22.30;66.90
42683;DHT22;28293;50.930;3.464;2023-05-07T12:28:03;22.50;66.20
42683;DHT22;28293;50.930;3.464;2023-05-07T12:30:37;22.60;66.30
42683;DHT22;28293;50.930;3.464;2023-05-07T12:33:03;22.50;66.60
42683;DHT22;28293;50.930;3.464;2023-05-07T12:35:29;22.60;66.00
42683;DHT22;28293;50.930;3.464;2023-05-07T12:37:56;22.80;64.20
42683;DHT22;28293;50.930;3.464;2023-05-07T12:40:24;22.80;64.40
42683;DHT22;28293;50.930;3.464;2023-05-07T12:42:53;22.80;65.00
42683;DHT22;28293;50.930;3.464;2023-05-07T12:45:21;23.00;63.80
42683;DHT22;28293;50.930;3.464;2023-05-07T12:47:47;22.90;62.50
42683;DHT22;28293;50.930;3.464;2023-05-07T12:50:14;23.00;63.40
42683;DHT22;28293;50.930;3.464;2023-05-07T12:52:40;23.10;62.40
42683;DHT22;28293;50.930;3.464;2023-05-07T12:55:09;23.10;62.90
42683;DHT22;28293;50.930;3.464;2023-05-07T12:57:39;23.10;63.00
42683;DHT22;28293;50.930;3.464;2023-05-07T13:00:06;23.20;63.20
42683;DHT22;28293;50.930;3.464;2023-05-07T13:02:33;23.10;62.00
42683;DHT22;28293;50.930;3.464;2023-05-07T13:05:00;23.00;63.30
42683;DHT22;28293;50.930;3.464;2023-05-07T13:07:25;23.00;64.20
42683;DHT22;28293;50.930;3.464;2023-05-07T13:09:51;23.00;63.50
42683;DHT22;28293;50.930;3.464;2023-05-07T13:12:17;22.90;63.80
42683;DHT22;28293;50.930;3.464;2023-05-07T13:14:43;22.90;64.00
42683;DHT22;28293;50.930;3.464;2023-05-07T13:17:08;22.70;64.10
42683;DHT22;28293;50.930;3.464;2023-05-07T13:19:34;22.60;65.30
42683;DHT22;28293;50.930;3.464;2023-05-07T13:22:00;22.60;65.30
42683;DHT22;28293;50.930;3.464;2023-05-07T13:24:26;22.60;65.90
42683;DHT22;28293;50.930;3.464;2023-05-07T13:26:52;22.60;66.00
42683;DHT22;28293;50.930;3.464;2023-05-07T13:29:17;22.70;65.90
42683;DHT22;28293;50.930;3.464;2023-05-07T13:31:43;22.70;66.40
42683;DHT22;28293;50.930;3.464;2023-05-07T13:34:09;22.70;66.60
42683;DHT22;28293;50.930;3.464;2023-05-07T13:36:35;22.80;67.00
42683;DHT22;28293;50.930;3.464;2023-05-07T13:39:04;22.80;66.00
42683;DHT22;28293;50.930;3.464;2023-05-07T13:41:32;22.60;67.10
42683;DHT22;28293;50.930;3.464;2023-05-07T13:43:57;22.70;66.90
42683;DHT22;28293;50.930;3.464;2023-05-07T13:46:23;22.60;66.30
42683;DHT22;28293;50.930;3.464;2023-05-07T13:48:49;22.50;66.60
42683;DHT22;28293;50.930;3.464;2023-05-07T13:51:15;22.20;67.40
42683;DHT22;28293;50.930;3.464;2023-05-07T13:53:42;22.20;67.90
42683;DHT22;28293;50.930;3.464;2023-05-07T13:56:08;22.10;67.60
42683;DHT22;28293;50.930;3.464;2023-05-07T13:58:33;22.00;67.70
42683;DHT22;28293;50.930;3.464;2023-05-07T14:01:00;22.00;68.00
42683;DHT22;28293;50.930;3.464;2023-05-07T14:03:26;22.10;67.20
42683;DHT22;28293;50.930;3.464;2023-05-07T14:05:51;22.00;67.10
42683;DHT22;28293;50.930;3.464;2023-05-07T14:08:17;22.10;67.40
42683;DHT22;28293;50.930;3.464;2023-05-07T14:10:45;22.20;66.70
42683;DHT22;28293;50.930;3.464;2023-05-07T14:13:11;22.30;66.30
42683;DHT22;28293;50.930;3.464;2023-05-07T14:15:37;22.30;65.70
42683;DHT22;28293;50.930;3.464;2023-05-07T14:18:03;22.40;65.60
42683;DHT22;28293;50.930;3.464;2023-05-07T14:20:29;22.40;64.70
42683;DHT22;28293;50.930;3.464;2023-05-07T14:22:56;22.30;66.10
42683;DHT22;28293;50.930;3.464;2023-05-07T14:25:22;22.40;63.40
42683;DHT22;28293;50.930;3.464;2023-05-07T14:27:47;22.50;63.10
42683;DHT22;28293;50.930;3.464;2023-05-07T14:30:13;22.40;64.30
42683;DHT22;28293;50.930;3.464;2023-05-07T14:32:39;22.60;63.50
42683;DHT22;28293;50.930;3.464;2023-05-07T14:35:05;22.70;62.80
42683;DHT22;28293;50.930;3.464;2023-05-07T14:37:30;22.80;62.70
42683;DHT22;28293;50.930;3.464;2023-05-07T14:39:56;22.70;61.00
42683;DHT22;28293;50.930;3.464;2023-05-07T14:42:22;22.60;63.30
42683;DHT22;28293;50.930;3.464;2023-05-07T14:44:48;22.80;62.90
42683;DHT22;28293;50.930;3.464;2023-05-07T14:47:14;23.00;62.40
42683;DHT22;28293;50.930;3.464;2023-05-07T14:49:41;23.00;62.80
42683;DHT22;28293;50.930;3.464;2023-05-07T14:52:07;23.10;60.90
42683;DHT22;28293;50.930;3.464;2023-05-07T14:54:35;23.00;60.90
42683;DHT22;28293;50.930;3.464;2023-05-07T14:57:01;22.80;61.90
42683;DHT22;28293;50.930;3.464;2023-05-07T14:59:27;22.60;62.00
42683;DHT22;28293;50.930;3.464;2023-05-07T15:01:53;22.30;62.90
42683;DHT22;28293;50.930;3.464;2023-05-07T15:04:19;22.20;63.30
42683;DHT22;28293;50.930;3.464;2023-05-07T15:06:45;22.10;63.40
42683;DHT22;28293;50.930;3.464;2023-05-07T15:09:11;22.10;64.40
42683;DHT22;28293;50.930;3.464;2023-05-07T15:11:37;22.10;64.50
42683;DHT22;28293;50.930;3.464;2023-05-07T15:14:03;22.10;65.30
42683;DHT22;28293;50.930;3.464;2023-05-07T15:16:29;22.20;64.50
42683;DHT22;28293;50.930;3.464;2023-05-07T15:18:54;22.20;65.30
42683;DHT22;28293;50.930;3.464;2023-05-07T15:21:20;22.10;65.20
42683;DHT22;28293;50.930;3.464;2023-05-07T15:23:46;22.10;65.20
42683;DHT22;28293;50.930;3.464;2023-05-07T15:26:11;22.00;65.60
42683;DHT22;28293;50.930;3.464;2023-05-07T15:28:37;21.80;66.40
42683;DHT22;28293;50.930;3.464;2023-05-07T15:31:04;21.80;66.20
42683;DHT22;28293;50.930;3.464;2023-05-07T15:33:31;21.70;66.90
42683;DHT22;28293;50.930;3.464;2023-05-07T15:35:56;21.60;67.80